Time;durP1;ratioP1;P1;durP2;ratioP2;P2;SDS_P1;SDS_P2;PMS_P1;PMS_P2;Temp;Humidity;BMP_temperature;BMP_pressure;BME280_temperature;BME280_humidity;BME280_pressure;Samples;Min_cycle;Max_cycle;Signal;HPM_P1;HPM_P2
2021/03/16 00:01:56;;;;;;;4.93;2.85;;;5.20;80.80;;;;;;5128135;27;27482;-38
2021/03/16 00:04:40;;;;;;;4.05;2.75;;;5.20;80.80;;;;;;5127847;27;28110;-38
2021/03/16 00:07:37;;;;;;;3.17;2.10;;;5.10;80.80;;;;;;5125795;27;27406;-38
2021/03/16 00:10:21;;;;;;;3.72;2.45;;;5.10;80.70;;;;;;5127240;27;27529;-38
2021/03/16 00:13:06;;;;;;;3.38;2.05;;;5.10;80.70;;;;;;5126862;27;27476;-36
2021/03/16 00:15:51;;;;;;;4.68;2.30;;;5.10;81.00;;;;;;5128130;27;27425;-39
2021/03/16 00:18:35;;;;;;;5.28;2.50;;;5.10;81.00;;;;;;5128164;27;27478;-39
2021/03/16 00:21:20;;;;;;;5.53;2.30;;;5.00;81.10;;;;;;5127487;27;27315;-39
2021/03/16 00:24:05;;;;;;;3.47;2.33;;;5.00;81.10;;;;;;5127133;27;27402;-38
2021/03/16 07:59:59;;;;;;;9.77;1.90;;;6.70;76.20;;;;;;5162044;27;27341;-41
2021/03/16 08:03:03;;;;;;;6.20;2.20;;;6.90;76.40;;;;;;5142557;27;27409;-36
2021/03/16 08:06:07;;;;;;;7.35;2.17;;;7.10;75.90;;;;;;5142644;27;26957;-39
2021/03/16 08:09:21;;;;;;;5.88;2.20;;;7.30;75.10;;;;;;5142549;27;27418;-39
2021/03/16 08:12:29;;;;;;;5.97;2.30;;;7.40;74.60;;;;;;5142102;27;27932;-36
2021/03/16 08:15:43;;;;;;;6.68;2.42;;;7.60;74.20;;;;;;5142324;27;27434;-36
2021/03/16 08:18:46;;;;;;;6.57;2.55;;;7.70;73.70;;;;;;5142232;27;27410;-39
2021/03/16 08:21:59;;;;;;;6.15;2.25;;;7.80;73.20;;;;;;5142225;27;27398;-39
2021/03/16 08:25:06;;;;;;;7.22;2.40;;;8.00;72.80;;;;;;5142364;27;27457;-39
2021/03/16 08:28:15;;;;;;;11.35;2.50;;;8.30;71.90;;;;;;5141569;27;27468;-39
2021/03/16 08:31:19;;;;;;;8.98;2.50;;;8.70;70.90;;;;;;5142141;27;27319;-39
2021/03/16 08:34:25;;;;;;;3.65;2.15;;;9.00;70.10;;;;;;5141207;27;27422;-39
2021/03/16 08:37:33;;;;;;;9.23;1.75;;;9.30;69.20;;;;;;5141602;27;27408;-38
2021/03/16 08:40:36;;;;;;;5.00;2.30;;;9.60;68.50;;;;;;5141911;27;27310;-40
2021/03/16 08:43:41;;;;;;;6.68;2.08;;;9.80;67.60;;;;;;5141885;27;26969;-38
2021/03/16 08:46:44;;;;;;;6.18;2.00;;;10.00;67.00;;;;;;5142204;27;27336;-39
2021/03/16 08:49:49;;;;;;;6.30;1.90;;;10.20;66.40;;;;;;5141794;27;27872;-39
2021/03/16 08:52:52;;;;;;;6.97;2.10;;;10.30;66.20;;;;;;5142093;27;27342;-39
2021/03/16 08:55:55;;;;;;;5.63;1.92;;;10.30;65.80;;;;;;5141840;27;27438;-39
2021/03/16 08:59:03;;;;;;;3.95;1.95;;;10.40;65.70;;;;;;5141241;27;27410;-40
2021/03/16 09:02:07;;;;;;;4.60;1.90;;;10.50;66.60;;;;;;5141773;27;27863;-40
2021/03/16 09:05:21;;;;;;;5.15;2.17;;;10.40;65.60;;;;;;5141680;27;27426;-39
2021/03/16 09:08:24;;;;;;;6.03;2.58;;;10.40;65.50;;;;;;5141850;27;27480;-40
2021/03/16 09:11:32;;;;;;;6.07;1.98;;;10.40;65.40;;;;;;5127684;27;27489;-40
2021/03/16 09:14:35;;;;;;;7.45;2.10;;;10.40;65.40;;;;;;5128238;27;27454;-39
2021/03/16 09:17:41;;;;;;;6.35;1.98;;;10.40;65.20;;;;;;5127710;27;27448;-39
2021/03/16 09:20:44;;;;;;;7.47;2.72;;;10.40;65.00;;;;;;5127360;27;27473;-39
2021/03/16 09:23:47;;;;;;;7.50;2.00;;;10.50;64.60;;;;;;5127000;27;27414;-39
2021/03/16 09:27:01;;;;;;;6.45;2.25;;;10.50;64.50;;;;;;5127364;27;27848;-40
2021/03/16 09:30:06;;;;;;;10.32;2.25;;;10.60;63.80;;;;;;5127403;27;27402;-41
2021/03/16 09:33:11;;;;;;;6.07;2.00;;;10.50;64.00;;;;;;5127122;27;27450;-40
2021/03/16 09:36:25;;;;;;;6.93;2.05;;;10.40;63.80;;;;;;5127549;27;27401;-40
2021/03/16 09:40:02;;;;;;;7.68;2.15;;;10.20;63.70;;;;;;5099723;27;27856;-40
2021/03/16 09:42:58;;;;;;;5.93;2.03;;;10.10;64.00;;;;;;5127081;27;27488;-40
2021/03/16 09:45:51;;;;;;;4.78;1.85;;;10.10;64.10;;;;;;5123377;27;27446;-42
2021/03/16 09:48:37;;;;;;;2.42;1.70;;;10.00;64.20;;;;;;5127556;27;27373;-42
2021/03/16 09:51:26;;;;;;;9.88;2.10;;;9.90;64.60;;;;;;5122928;27;27423;-43
2021/03/16 09:54:11;;;;;;;7.75;2.78;;;9.70;65.00;;;;;;5123214;27;27494;-41
2021/03/16 09:56:55;;;;;;;6.28;1.88;;;9.70;65.40;;;;;;5127242;27;27422;-40
2021/03/16 09:59:44;;;;;;;7.50;3.20;;;9.90;65.50;;;;;;5126372;27;27421;-41
2021/03/16 10:02:33;;;;;;;6.13;2.50;;;10.10;65.40;;;;;;5122636;27;27856;-41
2021/03/16 10:05:20;;;;;;;3.55;1.63;;;10.40;64.90;;;;;;5122917;27;27539;-42
2021/03/16 10:08:04;;;;;;;5.47;2.08;;;10.80;64.30;;;;;;5127455;27;27336;-43
2021/03/16 10:10:49;;;;;;;3.50;1.70;;;11.10;63.60;;;;;;5126667;27;27418;-40
2021/03/16 10:13:39;;;;;;;5.22;2.13;;;11.30;64.00;;;;;;5126657;27;27894;-40
2021/03/16 10:16:23;;;;;;;6.07;2.13;;;11.40;62.70;;;;;;5126543;27;27336;-42
2021/03/16 10:19:08;;;;;;;4.32;2.08;;;11.40;62.40;;;;;;5111173;27;27403;-40
2021/03/16 10:21:53;;;;;;;7.88;1.95;;;11.40;62.40;;;;;;5110538;27;27356;-41
2021/03/16 10:24:37;;;;;;;2.50;1.73;;;11.40;62.40;;;;;;5126732;27;27994;-41
2021/03/16 10:27:29;;;;;;;7.13;2.38;;;11.40;62.20;;;;;;5125930;27;27514;-41
2021/03/16 10:30:14;;;;;;;4.68;2.10;;;11.40;62.30;;;;;;5126824;27;27422;-40
2021/03/16 10:32:59;;;;;;;8.95;2.10;;;11.40;62.10;;;;;;5126451;27;27472;-40
2021/03/16 10:35:44;;;;;;;6.05;1.92;;;11.40;62.10;;;;;;5122497;27;27511;-42
2021/03/16 10:38:28;;;;;;;9.25;3.22;;;11.50;61.90;;;;;;5126007;27;27427;-41
2021/03/16 10:41:13;;;;;;;5.93;2.10;;;11.70;61.90;;;;;;5126579;27;27343;-42
2021/03/16 10:43:57;;;;;;;7.53;2.25;;;11.90;61.60;;;;;;5126444;27;27457;-42
2021/03/16 10:46:42;;;;;;;8.13;2.22;;;12.10;60.90;;;;;;5123096;27;27407;-41
2021/03/16 10:49:26;;;;;;;6.55;2.38;;;12.30;60.30;;;;;;5123091;27;27377;-42
2021/03/16 10:52:11;;;;;;;5.53;2.50;;;12.40;59.90;;;;;;5126288;27;27379;-40
2021/03/16 10:54:55;;;;;;;4.80;2.30;;;12.70;59.30;;;;;;5126340;27;27365;-42
2021/03/16 10:57:39;;;;;;;8.48;2.10;;;12.90;59.00;;;;;;5125380;27;27924;-39
2021/03/16 11:00:24;;;;;;;3.55;1.75;;;13.00;58.60;;;;;;5125850;27;27401;-42
2021/03/16 11:03:09;;;;;;;6.93;2.92;;;13.20;58.50;;;;;;5121687;27;27429;-41
2021/03/16 11:05:53;;;;;;;5.63;2.70;;;13.30;57.90;;;;;;5125983;27;27329;-40
2021/03/16 11:08:38;;;;;;;5.18;2.10;;;13.40;57.80;;;;;;5125544;27;27953;-42
2021/03/16 11:11:22;;;;;;;7.97;2.83;;;13.40;57.60;;;;;;5125079;27;27386;-43
2021/03/16 11:14:07;;;;;;;7.53;2.83;;;13.50;57.50;;;;;;5107678;27;27421;-41
2021/03/16 11:16:51;;;;;;;9.48;3.10;;;13.50;57.60;;;;;;5125770;27;27442;-42
2021/03/16 11:19:35;;;;;;;12.55;2.92;;;13.40;57.10;;;;;;5125070;27;27438;-43
2021/03/16 11:22:20;;;;;;;8.30;3.13;;;13.30;58.10;;;;;;5121464;27;27478;-42
2021/03/16 11:25:05;;;;;;;5.72;2.60;;;13.10;57.30;;;;;;5125672;27;27477;-41
2021/03/16 11:27:51;;;;;;;8.75;2.95;;;13.00;57.60;;;;;;5125494;27;27470;-42
2021/03/16 11:30:36;;;;;;;6.80;2.90;;;13.00;57.90;;;;;;5125221;27;27996;-42
2021/03/16 11:33:21;;;;;;;4.60;2.67;;;13.00;57.90;;;;;;5124834;27;27425;-41
2021/03/16 11:36:24;;;;;;;7.05;3.20;;;12.90;57.90;;;;;;5125218;27;27478;-42
2021/03/16 11:39:27;;;;;;;3.88;2.22;;;12.70;58.20;;;;;;5124756;27;27426;-41
2021/03/16 11:42:31;;;;;;;11.43;3.00;;;12.50;58.40;;;;;;5124531;27;27405;-43
2021/03/16 11:45:34;;;;;;;7.40;2.10;;;12.30;58.70;;;;;;5125232;27;27355;-42
2021/03/16 11:48:37;;;;;;;5.93;2.53;;;12.10;59.00;;;;;;5125009;27;27381;-41
2021/03/16 11:51:41;;;;;;;8.57;2.60;;;11.90;59.10;;;;;;5125346;27;27411;-43
2021/03/16 11:54:44;;;;;;;4.55;2.28;;;11.80;59.20;;;;;;5125082;27;27945;-41
2021/03/16 11:57:47;;;;;;;5.80;1.88;;;11.70;59.10;;;;;;5124630;27;27463;-38
2021/03/16 12:00:51;;;;;;;5.32;1.75;;;11.50;59.10;;;;;;5124997;27;27324;-42
2021/03/16 12:03:55;;;;;;;10.27;3.90;;;11.30;59.40;;;;;;5125037;27;27328;-41
2021/03/16 12:06:58;;;;;;;5.50;2.53;;;11.00;59.70;;;;;;5125175;27;27962;-38
2021/03/16 12:10:03;;;;;;;6.45;2.47;;;10.70;60.70;;;;;;5124266;27;27449;-44
2021/03/16 12:13:07;;;;;;;5.68;1.65;;;10.60;61.20;;;;;;5124687;27;27352;-38
2021/03/16 12:16:10;;;;;;;5.13;2.00;;;10.50;61.60;;;;;;5124802;27;27412;-41
2021/03/16 12:19:14;;;;;;;5.30;1.50;;;10.50;61.50;;;;;;5124414;27;27468;-41
2021/03/16 12:22:17;;;;;;;3.60;1.70;;;10.80;61.40;;;;;;5124680;27;27427;-41
2021/03/16 12:25:20;;;;;;;5.07;1.80;;;11.00;60.70;;;;;;5125009;27;27441;-41
2021/03/16 12:28:23;;;;;;;3.45;1.67;;;11.30;60.30;;;;;;5124893;27;27319;-41
2021/03/16 12:31:27;;;;;;;7.13;1.65;;;11.60;59.50;;;;;;5124572;27;27823;-38
2021/03/16 12:34:30;;;;;;;3.83;1.60;;;12.00;58.80;;;;;;5124417;27;27406;-41
2021/03/16 12:37:34;;;;;;;5.72;2.00;;;12.20;58.40;;;;;;5123904;27;27599;-41
2021/03/16 12:40:38;;;;;;;7.25;1.70;;;12.30;58.20;;;;;;5124440;27;27467;-41
2021/03/16 12:43:41;;;;;;;2.78;1.55;;;12.20;58.20;;;;;;5124356;27;27405;-41
2021/03/16 12:46:45;;;;;;;4.30;1.73;;;12.00;58.40;;;;;;5127666;27;27385;-41
2021/03/16 12:49:48;;;;;;;6.55;1.98;;;11.80;58.70;;;;;;5127929;27;27350;-41
2021/03/16 12:52:51;;;;;;;5.97;1.65;;;11.60;59.00;;;;;;5127964;27;27426;-42
2021/03/16 12:55:55;;;;;;;3.78;2.10;;;11.60;59.40;;;;;;5128059;27;27480;-41
2021/03/16 12:58:58;;;;;;;5.10;1.88;;;11.50;59.60;;;;;;5126836;27;27482;-41
2021/03/16 13:02:02;;;;;;;7.95;2.30;;;11.60;60.00;;;;;;5127798;27;27386;-41
2021/03/16 13:05:06;;;;;;;4.30;1.60;;;11.90;59.60;;;;;;5126803;27;27381;-42
2021/03/16 13:08:09;;;;;;;6.88;1.67;;;12.30;59.20;;;;;;5126536;27;27454;-42
2021/03/16 13:11:12;;;;;;;4.63;1.60;;;12.60;58.70;;;;;;5127490;27;27409;-42
2021/03/16 13:14:15;;;;;;;5.10;2.35;;;12.90;58.10;;;;;;5127311;27;27434;-38
2021/03/16 13:17:19;;;;;;;4.78;1.98;;;13.30;57.90;;;;;;5127316;27;27410;-42
2021/03/16 13:20:23;;;;;;;6.60;2.00;;;13.90;57.10;;;;;;5127532;27;27495;-42
2021/03/16 13:23:26;;;;;;;7.82;1.92;;;15.00;55.60;;;;;;5127247;27;27336;-44
2021/03/16 13:26:31;;;;;;;4.45;1.63;;;15.80;55.10;;;;;;5127372;27;27406;-41
2021/03/16 13:29:34;;;;;;;5.68;1.50;;;16.50;53.20;;;;;;5127037;27;27367;-41
2021/03/16 13:32:38;;;;;;;8.70;1.90;;;17.00;52.70;;;;;;5126872;27;27417;-44
2021/03/16 13:35:41;;;;;;;4.47;1.63;;;17.50;52.10;;;;;;5127183;27;27563;-42
2021/03/16 13:38:45;;;;;;;7.38;1.90;;;17.70;51.00;;;;;;5126821;27;27469;-45
2021/03/16 13:41:48;;;;;;;5.43;1.60;;;18.00;50.20;;;;;;5127345;27;27477;-42
2021/03/16 13:44:52;;;;;;;5.13;1.52;;;18.60;49.30;;;;;;5127026;27;27330;-42
2021/03/16 13:47:55;;;;;;;4.60;1.55;;;19.00;48.70;;;;;;5126949;27;27326;-42
2021/03/16 13:50:58;;;;;;;6.18;1.38;;;18.80;48.70;;;;;;5127230;27;27343;-44
2021/03/16 13:54:02;;;;;;;3.88;1.30;;;18.50;49.60;;;;;;5127071;27;27472;-44
2021/03/16 13:57:06;;;;;;;4.95;1.88;;;17.90;49.50;;;;;;5120372;27;27422;-41
2021/03/16 14:00:09;;;;;;;4.68;1.67;;;17.30;50.40;;;;;;5106027;28;27564;-42
2021/03/16 14:03:12;;;;;;;4.32;1.50;;;16.80;51.20;;;;;;5105978;28;27431;-41
2021/03/16 14:06:16;;;;;;;4.28;1.42;;;16.50;51.80;;;;;;5106442;28;27357;-46
2021/03/16 14:09:21;;;;;;;5.35;1.75;;;16.30;51.50;;;;;;5105769;28;27416;-43
2021/03/16 14:12:23;;;;;;;5.30;1.15;;;16.20;51.30;;;;;;5106351;28;27346;-41
2021/03/16 14:15:27;;;;;;;5.75;1.25;;;16.30;51.10;;;;;;5106477;28;27398;-41
2021/03/16 14:18:30;;;;;;;7.00;1.55;;;16.90;50.60;;;;;;5105051;28;27478;-44
2021/03/16 14:21:34;;;;;;;5.70;1.27;;;17.60;49.00;;;;;;5105828;28;27415;-43
2021/03/16 14:24:37;;;;;;;4.40;1.27;;;18.30;47.80;;;;;;5105255;28;27495;-41
2021/03/16 14:27:41;;;;;;;3.63;1.20;;;18.90;46.70;;;;;;5105338;28;27336;-43
2021/03/16 14:30:45;;;;;;;5.40;1.38;;;19.30;45.60;;;;;;5105264;28;27328;-44
2021/03/16 14:33:48;;;;;;;3.17;1.42;;;19.60;45.10;;;;;;5081802;28;27455;-43
2021/03/16 14:36:52;;;;;;;2.42;1.45;;;19.80;45.30;;;;;;5105834;28;27409;-45
2021/03/16 14:39:55;;;;;;;4.00;1.73;;;19.90;44.90;;;;;;5104819;28;27353;-41
2021/03/16 14:42:59;;;;;;;6.22;1.70;;;19.90;44.60;;;;;;5105576;28;26844;-43
2021/03/16 14:46:02;;;;;;;4.50;2.05;;;19.70;44.90;;;;;;5105135;28;27450;-42
2021/03/16 14:49:05;;;;;;;3.78;1.58;;;19.20;44.30;;;;;;5105175;28;27498;-46
2021/03/16 14:52:09;;;;;;;4.95;2.15;;;18.50;45.00;;;;;;5105033;28;27425;-44
2021/03/16 14:55:13;;;;;;;4.88;2.08;;;17.90;45.80;;;;;;5105146;28;27358;-44
2021/03/16 14:58:16;;;;;;;5.63;2.25;;;17.30;46.40;;;;;;5104449;28;27976;-42
2021/03/16 15:01:19;;;;;;;6.53;3.03;;;16.70;47.00;;;;;;5105134;28;27502;-40
2021/03/16 15:04:23;;;;;;;7.93;2.83;;;16.20;47.60;;;;;;5105246;28;27461;-43
2021/03/16 15:07:26;;;;;;;4.45;2.50;;;15.80;48.40;;;;;;5104584;28;27324;-45
2021/03/16 15:10:30;;;;;;;5.85;3.05;;;15.40;48.60;;;;;;5104820;28;27344;-44
2021/03/16 15:13:34;;;;;;;6.45;3.00;;;15.10;49.30;;;;;;5104591;28;27343;-42
2021/03/16 15:16:37;;;;;;;5.90;3.35;;;14.80;50.10;;;;;;5104792;28;27400;-42
2021/03/16 15:19:41;;;;;;;10.30;3.28;;;14.50;50.60;;;;;;5080890;28;27416;-45
2021/03/16 15:22:44;;;;;;;6.60;3.60;;;14.20;51.30;;;;;;5101648;28;27995;-41
2021/03/16 15:25:50;;;;;;;7.38;3.65;;;13.80;51.90;;;;;;5104610;28;27517;-39
2021/03/16 15:28:53;;;;;;;7.00;3.33;;;13.50;52.80;;;;;;5104650;28;27473;-41
2021/03/16 15:31:56;;;;;;;5.95;3.13;;;13.10;53.40;;;;;;5103949;28;27365;-42
2021/03/16 15:35:00;;;;;;;5.47;3.10;;;12.90;54.20;;;;;;5104659;28;27286;-40
2021/03/16 15:38:04;;;;;;;7.03;3.05;;;12.60;55.00;;;;;;5104940;28;27534;-41
2021/03/16 15:41:08;;;;;;;4.80;2.95;;;12.30;55.80;;;;;;5104122;28;27431;-43
2021/03/16 15:44:11;;;;;;;6.57;3.20;;;12.10;56.30;;;;;;5104495;28;27411;-40
2021/03/16 15:47:15;;;;;;;6.03;3.15;;;12.00;56.70;;;;;;5104428;28;27403;-41
2021/03/16 15:50:18;;;;;;;4.90;2.70;;;11.80;57.00;;;;;;5104312;28;27645;-40
2021/03/16 15:53:22;;;;;;;11.30;3.47;;;11.60;57.40;;;;;;5104402;28;27364;-40
2021/03/16 15:56:25;;;;;;;7.28;3.25;;;11.50;58.00;;;;;;5104430;28;27339;-41
2021/03/16 15:59:28;;;;;;;5.57;4.05;;;11.30;58.40;;;;;;5103745;28;27390;-40
2021/03/16 16:02:32;;;;;;;6.10;3.28;;;11.20;58.70;;;;;;5104752;28;27428;-40
2021/03/16 16:05:35;;;;;;;5.30;3.45;;;11.10;58.90;;;;;;5104749;28;27400;-40
2021/03/16 16:08:39;;;;;;;8.00;3.97;;;11.00;59.20;;;;;;5104373;28;27539;-40
2021/03/16 16:11:43;;;;;;;6.65;3.60;;;10.90;59.40;;;;;;5104316;28;27453;-40
2021/03/16 16:14:46;;;;;;;5.72;3.22;;;10.70;59.60;;;;;;5104282;28;27401;-39
2021/03/16 16:17:50;;;;;;;7.30;3.50;;;10.60;59.80;;;;;;5104667;28;27340;-41
2021/03/16 16:20:54;;;;;;;8.32;2.95;;;10.50;60.00;;;;;;5106148;28;27388;-40
2021/03/16 16:23:57;;;;;;;5.72;2.90;;;10.30;60.30;;;;;;5107894;28;27872;-38
2021/03/16 16:27:00;;;;;;;8.20;2.88;;;10.20;60.60;;;;;;5107382;28;27501;-41
2021/03/16 16:30:04;;;;;;;6.50;3.08;;;10.10;61.00;;;;;;5107512;28;27510;-40
2021/03/16 16:33:08;;;;;;;5.85;3.13;;;10.00;61.30;;;;;;5107685;28;27379;-39
2021/03/16 16:36:11;;;;;;;4.45;2.80;;;9.90;61.90;;;;;;5107582;28;27361;-40
2021/03/16 16:39:15;;;;;;;6.97;3.30;;;9.70;62.30;;;;;;5107568;28;27421;-40
2021/03/16 16:42:18;;;;;;;5.60;2.80;;;9.60;62.60;;;;;;5107163;28;27405;-40
2021/03/16 16:45:21;;;;;;;6.05;3.22;;;9.50;62.90;;;;;;5107262;28;27457;-40
2021/03/16 16:48:25;;;;;;;5.10;2.97;;;9.40;63.30;;;;;;5107025;28;27473;-41
2021/03/16 16:51:28;;;;;;;9.25;4.30;;;9.30;63.90;;;;;;5107226;28;27496;-40
2021/03/16 16:54:32;;;;;;;8.88;4.18;;;9.20;64.00;;;;;;5107743;28;27388;-40
2021/03/16 16:57:35;;;;;;;7.40;3.83;;;9.20;64.40;;;;;;5106816;28;27328;-41
2021/03/16 17:00:39;;;;;;;6.13;3.63;;;9.10;64.70;;;;;;5106956;28;27385;-43
2021/03/16 17:03:43;;;;;;;5.85;3.85;;;9.00;65.00;;;;;;5107569;28;27379;-38
2021/03/16 17:06:46;;;;;;;6.03;3.97;;;8.90;65.30;;;;;;5107209;28;27473;-40
2021/03/16 17:09:49;;;;;;;5.07;3.97;;;8.80;65.50;;;;;;5106493;28;27181;-40
2021/03/16 17:12:53;;;;;;;9.43;4.38;;;8.70;66.00;;;;;;5107311;28;27972;-40
2021/03/16 17:15:56;;;;;;;7.15;4.30;;;8.60;66.20;;;;;;5106851;28;27394;-40
2021/03/16 17:18:59;;;;;;;7.50;4.47;;;8.50;66.50;;;;;;5106737;28;27390;-40
2021/03/16 17:22:03;;;;;;;7.63;4.47;;;8.40;66.80;;;;;;5106286;28;27389;-39
2021/03/16 17:25:07;;;;;;;7.53;4.57;;;8.40;67.10;;;;;;5106566;28;27407;-39
2021/03/16 17:28:13;;;;;;;11.48;4.78;;;8.30;67.40;;;;;;5106995;28;27463;-40
2021/03/16 17:31:17;;;;;;;7.75;4.22;;;8.20;67.60;;;;;;5106431;27;27414;-40
2021/03/16 17:34:20;;;;;;;8.00;4.43;;;8.10;67.90;;;;;;5106610;28;27497;-37
2021/03/16 17:37:24;;;;;;;7.63;4.25;;;8.10;68.10;;;;;;5106428;28;27865;-41
2021/03/16 17:40:27;;;;;;;8.68;4.72;;;8.00;68.00;;;;;;5106555;28;27414;-40
2021/03/16 17:43:30;;;;;;;8.15;5.00;;;7.90;68.20;;;;;;5106935;28;27306;-40
2021/03/16 17:46:34;;;;;;;8.55;4.00;;;7.80;68.50;;;;;;5105731;28;27384;-40
2021/03/16 17:49:37;;;;;;;12.05;4.78;;;7.80;68.60;;;;;;5106482;28;27965;-40
2021/03/16 17:52:40;;;;;;;7.82;4.63;;;7.70;68.80;;;;;;5106461;28;27393;-40
2021/03/16 17:55:43;;;;;;;7.28;4.55;;;7.70;69.20;;;;;;5106493;28;27475;-40
2021/03/16 17:58:47;;;;;;;9.68;4.18;;;7.60;69.40;;;;;;5106001;28;26971;-40
2021/03/16 18:01:50;;;;;;;7.70;4.28;;;7.50;69.60;;;;;;5105978;28;27322;-40
2021/03/16 18:04:54;;;;;;;6.82;3.85;;;7.50;69.70;;;;;;5105755;28;27398;-39
2021/03/16 18:07:57;;;;;;;9.82;4.63;;;7.40;69.90;;;;;;5105867;28;27414;-39
2021/03/16 18:11:01;;;;;;;11.25;4.20;;;7.40;70.00;;;;;;5106117;28;27480;-39
2021/03/16 18:14:04;;;;;;;12.52;5.00;;;7.40;70.20;;;;;;5106029;28;27453;-40
2021/03/16 18:17:08;;;;;;;9.35;4.53;;;7.30;70.10;;;;;;5105682;28;27429;-40
2021/03/16 18:20:12;;;;;;;8.95;4.10;;;7.30;70.20;;;;;;5106227;28;27417;-40
2021/03/16 18:23:15;;;;;;;6.05;3.97;;;7.30;70.40;;;;;;5105960;28;27402;-40
2021/03/16 18:26:19;;;;;;;6.40;4.07;;;7.30;70.50;;;;;;5105749;28;28050;-41
2021/03/16 18:29:22;;;;;;;13.20;4.82;;;7.20;70.60;;;;;;5105216;28;27411;-40
2021/03/16 18:32:25;;;;;;;9.40;4.95;;;7.20;70.70;;;;;;5105189;28;27466;-40
2021/03/16 18:35:28;;;;;;;12.27;5.15;;;7.20;70.70;;;;;;5105927;28;27488;-37
2021/03/16 18:38:32;;;;;;;11.02;4.78;;;7.20;70.90;;;;;;5104608;28;27414;-40
2021/03/16 18:41:35;;;;;;;8.95;4.85;;;7.20;70.90;;;;;;5105093;27;27411;-39
2021/03/16 18:44:39;;;;;;;7.13;4.57;;;7.10;70.90;;;;;;5105572;28;27432;-40
2021/03/16 18:47:43;;;;;;;8.48;4.95;;;7.10;71.10;;;;;;5105532;28;27387;-39
2021/03/16 18:50:46;;;;;;;7.03;4.68;;;7.10;71.30;;;;;;5104857;28;27442;-40
2021/03/16 18:53:49;;;;;;;8.52;5.05;;;7.10;71.50;;;;;;5105382;28;27465;-41
2021/03/16 18:56:52;;;;;;;10.48;5.07;;;7.00;71.50;;;;;;5105134;28;27423;-41
2021/03/16 18:59:56;;;;;;;7.90;5.03;;;7.00;71.60;;;;;;5061726;28;27385;-40
2021/03/16 19:02:59;;;;;;;8.35;4.43;;;7.00;71.60;;;;;;5064594;28;27381;-42
2021/03/16 19:06:03;;;;;;;11.35;4.50;;;6.90;71.60;;;;;;5064280;28;27439;-41
2021/03/16 19:09:06;;;;;;;6.35;3.90;;;6.90;71.70;;;;;;5064579;28;27490;-40
2021/03/16 19:12:10;;;;;;;5.97;3.72;;;6.90;71.80;;;;;;5064576;28;27464;-40
2021/03/16 19:15:15;;;;;;;7.82;4.20;;;6.90;71.90;;;;;;5064441;28;27517;-40
2021/03/16 19:18:18;;;;;;;9.00;4.22;;;6.90;72.00;;;;;;5075104;28;27536;-40
2021/03/16 19:21:22;;;;;;;9.52;3.90;;;6.90;72.00;;;;;;5064317;28;27331;-40
2021/03/16 19:24:25;;;;;;;9.48;3.53;;;6.90;72.10;;;;;;5063972;28;27336;-39
2021/03/16 19:27:30;;;;;;;7.15;4.40;;;6.80;72.10;;;;;;5063657;28;27832;-40
2021/03/16 19:30:33;;;;;;;7.82;3.78;;;6.80;72.30;;;;;;5064529;28;27398;-40
2021/03/16 19:33:37;;;;;;;7.50;3.35;;;6.80;72.30;;;;;;5075146;28;27450;-40
2021/03/16 19:36:42;;;;;;;4.88;3.40;;;6.80;72.40;;;;;;5064595;28;27387;-40
2021/03/16 19:39:45;;;;;;;6.13;3.55;;;6.80;72.40;;;;;;5064082;28;27821;-40
2021/03/16 19:42:49;;;;;;;8.23;4.55;;;6.70;72.50;;;;;;5064160;28;27417;-41
2021/03/16 19:45:52;;;;;;;5.65;3.65;;;6.70;72.60;;;;;;5064380;28;27340;-41
2021/03/16 19:48:56;;;;;;;7.03;3.38;;;6.70;72.60;;;;;;5064310;28;27336;-40
2021/03/16 19:51:59;;;;;;;7.85;3.42;;;6.70;72.70;;;;;;5063571;28;27396;-40
2021/03/16 19:55:03;;;;;;;9.02;3.42;;;6.70;72.60;;;;;;5063837;28;27372;-40
2021/03/16 19:58:06;;;;;;;7.78;3.47;;;6.60;72.50;;;;;;5076156;28;27442;-39
2021/03/16 20:01:10;;;;;;;4.80;2.83;;;6.60;72.70;;;;;;5104443;28;27421;-38
2021/03/16 20:04:13;;;;;;;7.20;3.20;;;6.60;72.70;;;;;;5104744;28;27438;-41
2021/03/16 20:07:17;;;;;;;4.45;2.97;;;6.60;73.00;;;;;;5104103;28;27353;-40
2021/03/16 20:10:20;;;;;;;10.07;3.00;;;6.50;72.90;;;;;;5104124;28;27385;-40
2021/03/16 20:13:23;;;;;;;4.07;2.80;;;6.50;73.00;;;;;;5104341;28;27340;-37
2021/03/16 20:16:29;;;;;;;7.13;3.55;;;6.50;73.10;;;;;;5104480;28;27465;-40
2021/03/16 20:19:32;;;;;;;4.50;2.85;;;6.50;73.30;;;;;;5104042;28;27439;-40
2021/03/16 20:22:36;;;;;;;4.72;3.03;;;6.40;73.20;;;;;;5104276;28;27420;-41
2021/03/16 20:25:39;;;;;;;5.28;3.22;;;6.40;73.20;;;;;;5104374;28;27507;-41
2021/03/16 20:28:42;;;;;;;6.07;3.80;;;6.40;73.30;;;;;;5104367;28;28114;-38
2021/03/16 20:31:46;;;;;;;7.22;3.40;;;6.40;73.50;;;;;;5104111;28;27432;-40
2021/03/16 20:34:49;;;;;;;4.80;2.90;;;6.30;73.40;;;;;;5104374;28;27429;-40
2021/03/16 20:37:52;;;;;;;4.57;3.33;;;6.30;73.60;;;;;;5104049;28;27416;-40
2021/03/16 20:40:56;;;;;;;6.57;3.50;;;6.30;73.70;;;;;;5103362;28;27461;-40
2021/03/16 20:44:00;;;;;;;5.32;3.42;;;6.20;73.90;;;;;;5103667;28;27421;-40
2021/03/16 20:47:04;;;;;;;5.05;3.33;;;6.20;74.00;;;;;;5103844;28;27429;-39
2021/03/16 20:50:08;;;;;;;6.25;3.55;;;6.20;74.10;;;;;;5103824;28;27328;-40
2021/03/16 20:53:11;;;;;;;6.68;3.53;;;6.20;74.20;;;;;;5103457;28;27974;-40
2021/03/16 20:56:14;;;;;;;5.03;3.30;;;6.20;74.10;;;;;;5103473;28;27535;-40
2021/03/16 20:59:18;;;;;;;6.60;3.63;;;6.20;74.20;;;;;;5103325;28;27398;-40
2021/03/16 21:02:21;;;;;;;6.03;3.80;;;6.20;74.30;;;;;;5103110;28;27417;-40
2021/03/16 21:05:25;;;;;;;7.53;3.92;;;6.20;74.40;;;;;;5104009;27;27485;-40
2021/03/16 21:08:28;;;;;;;7.55;4.00;;;6.20;74.40;;;;;;5107182;28;27430;-41
2021/03/16 21:11:31;;;;;;;7.97;4.07;;;6.20;74.50;;;;;;5107781;28;27346;-41
2021/03/16 21:14:34;;;;;;;5.05;3.83;;;6.20;74.50;;;;;;5106986;28;27331;-41
2021/03/16 21:17:38;;;;;;;7.60;4.18;;;6.10;74.60;;;;;;5107914;28;27336;-40
2021/03/16 21:20:41;;;;;;;9.15;4.97;;;6.10;74.70;;;;;;5107250;28;27441;-40
2021/03/16 21:23:45;;;;;;;10.02;6.05;;;6.10;74.70;;;;;;5107223;28;27415;-40
2021/03/16 21:26:48;;;;;;;16.02;7.50;;;6.10;74.70;;;;;;5106954;28;27418;-40
2021/03/16 21:29:51;;;;;;;26.98;10.60;;;6.10;74.90;;;;;;5106999;28;27315;-40
2021/03/16 21:32:55;;;;;;;22.15;9.75;;;6.10;74.90;;;;;;5106927;28;27419;-40
2021/03/16 21:35:58;;;;;;;21.80;8.73;;;6.10;74.80;;;;;;5107256;28;27380;-40
2021/03/16 21:39:01;;;;;;;20.85;8.90;;;6.10;75.00;;;;;;5106543;28;27418;-40
2021/03/16 21:42:05;;;;;;;16.58;7.43;;;6.10;75.00;;;;;;5106672;28;27568;-40
2021/03/16 21:45:09;;;;;;;17.45;8.75;;;6.10;75.10;;;;;;5106796;28;27477;-40
2021/03/16 21:48:13;;;;;;;14.70;7.78;;;6.10;75.10;;;;;;5105972;28;27451;-40
2021/03/16 21:51:16;;;;;;;16.52;7.60;;;6.00;75.00;;;;;;5106021;28;27354;-40
2021/03/16 21:54:20;;;;;;;19.75;8.57;;;6.10;75.20;;;;;;5106625;28;27852;-41
2021/03/16 21:57:23;;;;;;;15.75;7.80;;;6.00;75.20;;;;;;5106155;28;27550;-37
2021/03/16 22:00:27;;;;;;;17.73;7.82;;;6.00;75.20;;;;;;5106486;28;27457;-38
2021/03/16 22:03:30;;;;;;;13.48;7.35;;;6.00;75.40;;;;;;5106497;28;27446;-40
2021/03/16 22:06:33;;;;;;;17.85;8.05;;;6.00;75.30;;;;;;5106546;28;27480;-40
2021/03/16 22:09:37;;;;;;;14.85;7.57;;;6.00;75.40;;;;;;5105694;28;27316;-40
2021/03/16 22:12:41;;;;;;;17.90;7.93;;;6.00;75.50;;;;;;5106159;28;27385;-41
2021/03/16 22:15:45;;;;;;;16.83;7.03;;;6.00;75.60;;;;;;5106138;28;27401;-40
2021/03/16 22:18:48;;;;;;;15.80;7.45;;;6.00;75.70;;;;;;5106201;28;27311;-41
2021/03/16 22:21:51;;;;;;;14.35;7.03;;;5.90;75.70;;;;;;5105894;28;27431;-40
2021/03/16 22:24:55;;;;;;;10.85;6.10;;;5.90;76.00;;;;;;5105328;28;27428;-40
2021/03/16 22:27:58;;;;;;;9.50;5.75;;;5.90;76.20;;;;;;5093423;28;27391;-40
2021/03/16 22:31:01;;;;;;;13.77;6.28;;;5.90;76.20;;;;;;5105885;28;27326;-40
2021/03/16 22:34:04;;;;;;;10.48;5.85;;;5.80;76.30;;;;;;5106405;28;27388;-40
2021/03/16 22:37:08;;;;;;;10.90;5.68;;;5.90;76.30;;;;;;5105359;28;27682;-41
2021/03/16 22:40:11;;;;;;;11.82;5.68;;;5.80;76.30;;;;;;5105870;28;27403;-40
2021/03/16 22:43:15;;;;;;;14.48;6.20;;;5.80;76.30;;;;;;5105715;28;27426;-40
2021/03/16 22:46:18;;;;;;;14.15;6.45;;;5.80;76.40;;;;;;5105793;28;27406;-41
2021/03/16 22:49:22;;;;;;;11.20;5.38;;;5.80;76.50;;;;;;5105485;28;27323;-40
2021/03/16 22:52:26;;;;;;;12.52;6.07;;;5.80;76.60;;;;;;5105468;28;27335;-40
2021/03/16 22:55:29;;;;;;;10.05;5.07;;;5.80;76.60;;;;;;5105342;28;27945;-40
2021/03/16 22:58:32;;;;;;;12.48;6.18;;;5.80;76.70;;;;;;5104958;28;27419;-40
2021/03/16 23:01:36;;;;;;;12.15;6.15;;;5.70;76.60;;;;;;5105459;28;27420;-40
2021/03/16 23:04:39;;;;;;;10.30;4.60;;;5.70;76.60;;;;;;5105207;28;27573;-40
2021/03/16 23:07:42;;;;;;;8.55;5.10;;;5.70;76.70;;;;;;5104815;28;27320;-40
2021/03/16 23:10:45;;;;;;;10.15;4.88;;;5.70;76.70;;;;;;5105188;28;27403;-40
2021/03/16 23:13:49;;;;;;;8.55;5.10;;;5.70;76.90;;;;;;5105484;28;26968;-40
2021/03/16 23:16:52;;;;;;;7.47;4.82;;;5.70;77.00;;;;;;5105090;28;27474;-41
2021/03/16 23:19:55;;;;;;;7.97;4.70;;;5.70;77.00;;;;;;5105301;28;27969;-40